PORTS® Data Listing: 8770613 Morgans Point, TX

CO-OPS RAW PORTS DATA

************************      PRELIMINARY DATA      ************************** 

     THIS RAW DATA HAS NOT BEEN SUBJECT TO THE NATIONAL OCEAN SERVICE'S        
     QUALITY CONTROL OR QUALITY ASSURANCE PROCEDURES AND DOES NOT MEET         
     THE CRITERIA AND STANDARDS OF OFFICIAL NATIONAL OCEAN SERVICE             
     DATA.  IT IS RELEASED FOR LIMITED PUBLIC USE AS PRELIMINARY DATA TO       
     BE USED ONLY WITH APPROPRIATE CAUTION.                                    

************************      PRELIMINARY DATA      ************************** 


       CD   -   Calendar date
       T    -   Time
       TZ   -   Timezone
       PW   -   Predicted water level (feet above MLLW)
       OW   -   Observed water level (feet above MLLW)
       WS   -   Wind speed (knots)
       WD   -   Wind direction (degrees true)
       WG   -   Wind gust (knots)
       AT   -   Air temperature (degrees farenheit)
       WT   -   Water temperature (degrees farenheit)
       AP   -   Air pressure (millibars)
       SA   -   Salinty (PSU - Practical Salinity Units)
       SG   -   Specific gravity
       RH   -   Relative humidity
       AG   -   Air gap (feet)
       VI   -   Visibility (nautical miles)

       ** NOTE **
       A variable that has its data fields filled with "9"s, indicates that
       data was not collected for that sample period.
       **********


STATION NAME: Morgans Point (8770613)
****************************************************************************************************
    CD       T    TZ    PW     OW    WS   WD   WG    AT    WT    AP    SA    SG     RH    AG   VI
****************************************************************************************************
2020/02/24 12:48 CST   -0.22   0.99    3  198    6  68.4  59.4 1008.7 13.7  1.010 -99.9 -99.99 -9.99
2020/02/24 12:54 CST   -0.23   1.06    5  178    6  68.2  59.4 1008.5 13.7  1.011 -99.9 -99.99 -9.99
2020/02/24 13:00 CST   -0.24   1.01    5  170    6  66.7  59.4 1008.4 13.7  1.011 -99.9 -99.99 -9.99
2020/02/24 13:06 CST   -0.26   1.07    4  170    6  66.0  59.4 1008.3 13.8  1.011 -99.9 -99.99 -9.99
2020/02/24 13:12 CST   -0.27   1.02    4  154    5  64.9  59.4 1008.3 13.8  1.011 -99.9 -99.99 -9.99
2020/02/24 13:18 CST   -0.28   0.96    3  174    5  66.0  59.4 1008.1 13.8  1.011 -99.9 -99.99 -9.99
2020/02/24 13:24 CST   -0.29   0.94    4  169    4  66.0  59.4 1008.0 13.8  1.011 -99.9 -99.99 -9.99
2020/02/24 13:30 CST   -0.30   0.92    3  180    4  66.4  59.5 1007.8 13.7  1.010 -99.9 -99.99 -9.99
2020/02/24 13:36 CST   -0.31   0.92    6  246    8  68.5  59.5 1007.8 13.7  1.010 -99.9 -99.99 -9.99
2020/02/24 13:42 CST   -0.32   0.90    4  288    9  67.8  59.5 1008.0 13.7  1.010 -99.9 -99.99 -9.99
2020/02/24 13:48 CST   -0.33   0.85    3  336    5  67.3  59.5 1008.0 13.6  1.010 -99.9 -99.99 -9.99
2020/02/24 13:54 CST   -0.34   0.87    4  327    8  67.6  59.5 1007.7 13.7  1.010 -99.9 -99.99 -9.99
2020/02/24 14:00 CST   -0.35   0.84    3  339    4  67.8  59.5 1007.7 13.7  1.010 -99.9 -99.99 -9.99
2020/02/24 14:06 CST   -0.36   0.88    3  342    4  67.6  59.7 1007.6 13.7  1.010 -99.9 -99.99 -9.99
2020/02/24 14:12 CST   -0.37   0.82    2  312    5  67.6  59.7 1007.6 13.7  1.010 -99.9 -99.99 -9.99
2020/02/24 14:18 CST   -0.37   0.83    9  292   11  70.7  59.7 1007.6 13.7  1.010 -99.9 -99.99 -9.99
2020/02/24 14:24 CST   -0.38   0.81    7  290   11  69.6  59.7 1007.6 13.7  1.010 -99.9 -99.99 -9.99
2020/02/24 14:30 CST   -0.38   0.83    9  291   10  70.7  59.7 1007.7 13.7  1.010 -99.9 -99.99 -9.99
2020/02/24 14:36 CST   -0.39   0.81   10  293   13  70.7  59.7 1007.8 13.7  1.010 -99.9 -99.99 -9.99
2020/02/24 14:42 CST   -0.39   0.81   10  292   12  70.7  59.7 1007.9 13.7  1.010 -99.9 -99.99 -9.99
2020/02/24 14:48 CST   -0.39   0.79    9  290   13  70.3  59.7 1007.8 13.7  1.010 -99.9 -99.99 -9.99
2020/02/24 14:54 CST   -0.39   0.81    9  290   11  70.5  59.7 1007.7 13.7  1.010 -99.9 -99.99 -9.99
2020/02/24 15:00 CST   -0.40   0.79    7  286   10  69.8  59.7 1007.7 13.7  1.010 -99.9 -99.99 -9.99
2020/02/24 15:06 CST   -0.40   0.82    6  287    9  69.6  59.7 1007.8 13.7  1.010 -99.9 -99.99 -9.99
2020/02/24 15:12 CST   -0.39   0.81    7  294    9  70.2  59.7 1007.9 13.7  1.010 -99.9 -99.99 -9.99
2020/02/24 15:18 CST   -0.39   0.81    7  294    9  70.0  59.7 1007.9 13.6  1.010 -99.9 -99.99 -9.99
2020/02/24 15:24 CST   -0.39   0.78    6  293    8  69.6  59.9 1007.8 13.6  1.010 -99.9 -99.99 -9.99
2020/02/24 15:30 CST   -0.38   0.79    8  296    9  69.8  59.9 1007.8 13.6  1.010 -99.9 -99.99 -9.99
2020/02/24 15:36 CST   -0.38   0.81    8  298   10  69.6  59.9 1007.8 13.6  1.010 -99.9 -99.99 -9.99
2020/02/24 15:42 CST   -0.37   0.84    7  313   10  68.5  59.9 1007.9 13.6  1.010 -99.9 -99.99 -9.99
2020/02/24 15:48 CST   -0.37   0.75    6  305    7  68.0  59.9 1007.9 13.6  1.010 -99.9 -99.99 -9.99
2020/02/24 15:54 CST   -0.36   0.84    6  300    7  68.4  59.9 1008.0 13.6  1.010 -99.9 -99.99 -9.99
2020/02/24 16:00 CST   -0.35   0.75    5  306    7  67.8  59.9 1008.0 13.6  1.010 -99.9 -99.99 -9.99
2020/02/24 16:06 CST   -0.34   0.76    4  296    5  67.1  59.9 1007.9 13.6  1.010 -99.9 -99.99 -9.99
2020/02/24 16:12 CST   -0.33   0.85    4  285    6  67.6  59.9 1008.0 13.6  1.010 -99.9 -99.99 -9.99
2020/02/24 16:18 CST   -0.32   0.80    6  300    7  68.2  59.9 1008.0 13.6  1.010 -99.9 -99.99 -9.99
2020/02/24 16:24 CST   -0.31   0.76    8  291   11  68.5  59.9 1008.1 13.6  1.010 -99.9 -99.99 -9.99
2020/02/24 16:30 CST   -0.29   0.68    9  289   11  68.7  59.9 1008.1 13.6  1.010 -99.9 -99.99 -9.99
2020/02/24 16:36 CST   -0.28   0.77    7  296    9  68.4  60.1 1008.1 13.4  1.010 -99.9 -99.99 -9.99
2020/02/24 16:42 CST   -0.27   0.74    8  300   10  68.0  60.1 1008.2 13.3  1.010 -99.9 -99.99 -9.99
2020/02/24 16:48 CST   -0.25   0.77    7  303   10  67.5  60.1 1008.3 13.3  1.010 -99.9 -99.99 -9.99
2020/02/24 16:54 CST   -0.24   0.80    7  303    9  67.3  60.1 1008.2 13.3  1.010 -99.9 -99.99 -9.99
2020/02/24 17:00 CST   -0.22   0.83    6  302    7  67.1  60.1 1008.2 13.3  1.010 -99.9 -99.99 -9.99
2020/02/24 17:06 CST   -0.21   0.79    4  280    6  66.7  60.1 1008.2 13.3  1.010 -99.9 -99.99 -9.99
2020/02/24 17:12 CST   -0.19   0.81    4  284    5  67.1  60.1 1008.1 13.3  1.010 -99.9 -99.99 -9.99
2020/02/24 17:18 CST   -0.18   0.98    3  278    5  66.9  60.1 1008.1 13.3  1.010 -99.9 -99.99 -9.99
2020/02/24 17:24 CST   -0.16   0.87    3  288    4  67.1  60.1 1008.0 13.4  1.010 -99.9 -99.99 -9.99
2020/02/24 17:30 CST   -0.14   0.90    3  284    4  66.7  60.1 1008.2 13.4  1.010 -99.9 -99.99 -9.99
2020/02/24 17:36 CST   -0.12   1.03    3  282    4  66.4  60.1 1008.0 13.3  1.010 -99.9 -99.99 -9.99
2020/02/24 17:42 CST   -0.11   0.89    4  298    4  66.4  60.1 1008.2 13.3  1.010 -99.9 -99.99 -9.99
2020/02/24 17:48 CST   -0.09   0.91    3  292    4  66.0  60.3 1008.2 13.2  1.010 -99.9 -99.99 -9.99
2020/02/24 17:54 CST   -0.07   0.97    3  273    4  66.4  60.3 1008.2 13.2  1.010 -99.9 -99.99 -9.99
2020/02/24 18:00 CST   -0.05   1.06    2  282    3  66.2  60.3 1008.2 13.2  1.010 -99.9 -99.99 -9.99
2020/02/24 18:06 CST   -0.03   0.96    3  277    3  66.2  60.3 1008.4 13.2  1.010 -99.9 -99.99 -9.99
2020/02/24 18:12 CST   -0.01   0.96    3  264    4  65.5  60.3 1008.5 13.1  1.010 -99.9 -99.99 -9.99
2020/02/24 18:18 CST    0.01   1.01    3  288    4  65.7  60.3 1008.5 13.1  1.010 -99.9 -99.99 -9.99
2020/02/24 18:24 CST    0.03   1.02    3  270    5  65.8  60.3 1008.6 13.1  1.010 -99.9 -99.99 -9.99
2020/02/24 18:30 CST    0.05   0.94    4  252    6  66.6  60.3 1008.6 13.1  1.010 -99.9 -99.99 -9.99
2020/02/24 18:36 CST    0.07   1.05    4  290    5  65.8  60.3 1008.6 13.1  1.010 -99.9 -99.99 -9.99
2020/02/24 18:42 CST    0.09   1.06    5  287    6  65.5  60.3 1008.7 13.1  1.010 -99.9 -99.99 -9.99
2020/02/24 18:48 CST    0.11   1.13    5  280    7  65.3  60.3 1008.8 13.1  1.010 -99.9 -99.99 -9.99
2020/02/24 18:54 CST    0.13   1.12    5  280    7  65.3  60.3 1008.8 13.1  1.010 -99.9 -99.99 -9.99
2020/02/24 19:00 CST    0.16   1.18    5  282    6  64.6  60.3 1008.8 13.1  1.010 -99.9 -99.99 -9.99
2020/02/24 19:06 CST    0.18   1.07    4  290    5  63.9  60.3 1008.8 13.1  1.010 -99.9 -99.99 -9.99
2020/02/24 19:12 CST    0.20   1.13    4  280    5  64.2  60.3 1009.0 13.1  1.010 -99.9 -99.99 -9.99
2020/02/24 19:18 CST    0.22   1.14    4  281    5  64.4  60.3 1009.1 13.1  1.010 -99.9 -99.99 -9.99
2020/02/24 19:24 CST    0.24   1.21    5  273    5  64.6  60.3 1009.2 13.1  1.010 -99.9 -99.99 -9.99
2020/02/24 19:30 CST    0.26   1.23    3  270    5  64.6  60.3 1009.0 13.2  1.010 -99.9 -99.99 -9.99
2020/02/24 19:36 CST    0.28   1.20    2  227    4  64.0  60.3 1009.2 13.2  1.010 -99.9 -99.99 -9.99
2020/02/24 19:42 CST    0.29   1.19    2  256    4  64.2  60.3 1009.3 13.2  1.010 -99.9 -99.99 -9.99
2020/02/24 19:48 CST    0.31   1.19    2  265    4  63.9  60.3 1009.2 13.2  1.010 -99.9 -99.99 -9.99
2020/02/24 19:54 CST    0.33   1.26    4  270    4  64.0  60.1 1009.5 13.3  1.010 -99.9 -99.99 -9.99
2020/02/24 20:00 CST    0.35   1.33    3  268    6  64.0  60.1 1009.5 13.4  1.010 -99.9 -99.99 -9.99
2020/02/24 20:06 CST    0.37   1.36    5  271    6  64.6  60.1 1009.5 13.4  1.010 -99.9 -99.99 -9.99
2020/02/24 20:12 CST    0.38   1.30    6  273    6  64.4  60.1 1009.6 13.4  1.010 -99.9 -99.99 -9.99
2020/02/24 20:18 CST    0.40   1.10    5  266    6  64.0  60.1 1009.7 13.4  1.010 -99.9 -99.99 -9.99
2020/02/24 20:24 CST    0.42   1.35    4  267    5  64.2  60.1 1009.8 13.4  1.010 -99.9 -99.99 -9.99
2020/02/24 20:30 CST    0.43   1.39    5  275    7  64.2  60.1 1009.8 13.4  1.010 -99.9 -99.99 -9.99
2020/02/24 20:36 CST    0.45   1.45    6  278    6  64.8  60.1 1009.8 13.4  1.010 -99.9 -99.99 -9.99
2020/02/24 20:42 CST    0.46   1.26    5  270    6  64.6  60.1 1009.9 13.4  1.010 -99.9 -99.99 -9.99
2020/02/24 20:48 CST    0.47   1.38    5  287    6  64.2  60.1 1009.9 13.4  1.010 -99.9 -99.99 -9.99
2020/02/24 20:54 CST    0.49   1.36    5  290    7  64.2  60.1 1010.0 13.4  1.010 -99.9 -99.99 -9.99
2020/02/24 21:00 CST    0.50   1.49    5  276    6  64.0  60.1 1010.1 13.5  1.010 -99.9 -99.99 -9.99
2020/02/24 21:06 CST    0.51   1.48    3  264    5  63.9  59.9 1010.2 13.5  1.010 -99.9 -99.99 -9.99
2020/02/24 21:12 CST    0.52   1.41    4  278    4  64.0  60.1 1010.1 13.5  1.010 -99.9 -99.99 -9.99
2020/02/24 21:18 CST    0.54   1.39    3  267    4  64.0  60.1 1010.1 13.5  1.010 -99.9 -99.99 -9.99
2020/02/24 21:24 CST    0.55   1.46    3  270    4  63.7  60.1 1010.2 13.5  1.010 -99.9 -99.99 -9.99
2020/02/24 21:30 CST    0.56   1.42    3  278    4  63.5  60.1 1010.3 13.5  1.010 -99.9 -99.99 -9.99
2020/02/24 21:36 CST    0.57   1.47    1  245    4  63.3  60.1 1010.4 13.5  1.010 -99.9 -99.99 -9.99
2020/02/24 21:42 CST    0.57   1.48    2  219    3  62.8  60.1 1010.3 13.5  1.010 -99.9 -99.99 -9.99
2020/02/24 21:48 CST    0.58   1.49    3  229    4  63.0  60.1 1010.4 13.5  1.010 -99.9 -99.99 -9.99
2020/02/24 21:54 CST    0.59   1.43    5  231    6  62.8  60.1 1010.3 13.5  1.010 -99.9 -99.99 -9.99
2020/02/24 22:00 CST    0.60   1.42    5  228    7  62.4  60.1 1010.4 13.5  1.010 -99.9 -99.99 -9.99
2020/02/24 22:06 CST    0.60   1.42    6  235    6  62.2  60.1 1010.5 13.6  1.010 -99.9 -99.99 -9.99
2020/02/24 22:12 CST    0.61   1.52    5  235    6  62.1  59.9 1010.4 13.6  1.010 -99.9 -99.99 -9.99
2020/02/24 22:18 CST    0.61   1.58    5  239    6  61.9  59.9 1010.5 13.6  1.010 -99.9 -99.99 -9.99
2020/02/24 22:24 CST    0.62   1.41    5  240    5  61.9  59.9 1010.7 13.6  1.010 -99.9 -99.99 -9.99
2020/02/24 22:30 CST    0.62   1.40    5  241    6  61.9  59.9 1010.6 13.6  1.010 -99.9 -99.99 -9.99
2020/02/24 22:36 CST    0.62   1.41    5  247    6  61.9  59.9 1010.6 13.6  1.010 -99.9 -99.99 -9.99
2020/02/24 22:42 CST    0.62   1.50    7  244    7  62.4  59.9 1010.7 13.5  1.010 -99.9 -99.99 -9.99
2020/02/24 22:48 CST    0.62   1.49    5  243    7  62.2  59.9 1010.7 13.5  1.010 -99.9 -99.99 -9.99
2020/02/24 22:54 CST    0.62   1.37    6  243    6  62.2  59.9 1010.7 13.5  1.010 -99.9 -99.99 -9.99
2020/02/24 23:00 CST    0.62   1.25    6  248    7  62.2  59.9 1010.8 13.4  1.010 -99.9 -99.99 -9.99
2020/02/24 23:06 CST    0.62   1.44    6  245    7  62.4  59.9 1010.7 13.4  1.010 -99.9 -99.99 -9.99
2020/02/24 23:12 CST    0.62   1.40    6  247    8  62.4  59.9 1010.8 13.4  1.010 -99.9 -99.99 -9.99
2020/02/24 23:18 CST    0.62   1.45    5  247    8  62.2  59.9 1010.9 13.3  1.010 -99.9 -99.99 -9.99
2020/02/24 23:24 CST    0.61   1.40    5  248    7  61.9  59.9 1010.7 13.3  1.010 -99.9 -99.99 -9.99
2020/02/24 23:30 CST    0.61   1.41    5  244    7  61.9  59.7 1010.7 13.3  1.010 -99.9 -99.99 -9.99
2020/02/24 23:36 CST    0.60   1.39    6  248    7  62.1  59.7 1010.7 13.2  1.010 -99.9 -99.99 -9.99
2020/02/24 23:42 CST    0.60   1.36    6  247    7  61.9  59.9 1010.8 13.1  1.010 -99.9 -99.99 -9.99
2020/02/24 23:48 CST    0.59   1.32    6  244    7  61.9  59.9 1010.8 13.0  1.010 -99.9 -99.99 -9.99
2020/02/24 23:54 CST    0.59   1.40    6  238    7  61.7  59.9 1010.7 12.9  1.010 -99.9 -99.99 -9.99
2020/02/25 00:00 CST    0.58   1.35    5  239    6  61.5  59.9 1010.7 13.0  1.010 -99.9 -99.99 -9.99
2020/02/25 00:06 CST    0.57   1.34    3  211    5  61.2  59.9 1010.6 12.9  1.010 -99.9 -99.99 -9.99
2020/02/25 00:12 CST    0.57   1.29    3  225    3  60.6  59.9 1010.7 12.9  1.010 -99.9 -99.99 -9.99
2020/02/25 00:18 CST    0.56   1.42    0   85    3  60.1  60.1 1010.5 12.9  1.010 -99.9 -99.99 -9.99
2020/02/25 00:24 CST    0.55   1.32    1  231    2  60.1  60.1 1010.6 12.9  1.010 -99.9 -99.99 -9.99
2020/02/25 00:30 CST    0.55   1.30    2  239    3  60.4  60.1 1010.6 12.8  1.010 -99.9 -99.99 -9.99
2020/02/25 00:36 CST    0.54   1.19    2  254    3  60.4  60.1 1010.6 12.8  1.010 -99.9 -99.99 -9.99
2020/02/25 00:42 CST    0.53   1.26    2  261    2  60.1  60.1 1010.6 12.8  1.010 -99.9 -99.99 -9.99
2020/02/25 00:48 CST    0.53   1.28    1  260    3  60.1  60.1 1010.6 12.8  1.010 -99.9 -99.99 -9.99
2020/02/25 00:54 CST    0.52   1.23    0  243    1  59.9  60.1 1010.6 12.8  1.010 -99.9 -99.99 -9.99
2020/02/25 01:00 CST    0.51   1.18    1  305    1  59.7  60.1 1010.6 12.8  1.010 -99.9 -99.99 -9.99
2020/02/25 01:06 CST    0.51   1.18    0  250    1  59.7  60.1 1010.6 12.7  1.010 -99.9 -99.99 -9.99
2020/02/25 01:12 CST    0.50   1.19    1  145    2  59.2  60.1 1010.6 12.7  1.010 -99.9 -99.99 -9.99
2020/02/25 01:18 CST    0.49   1.21    2  175    3  59.0  60.1 1010.7 12.7  1.010 -99.9 -99.99 -9.99
2020/02/25 01:24 CST    0.48   1.15    2  159    3  59.0  60.1 1010.6 12.7  1.010 -99.9 -99.99 -9.99
2020/02/25 01:30 CST    0.48   1.15    2  160    2  58.6  60.1 1010.5 12.8  1.010 -99.9 -99.99 -9.99
2020/02/25 01:36 CST    0.47   1.14    2  166    3  58.5  60.1 1010.5 12.8  1.010 -99.9 -99.99 -9.99
2020/02/25 01:42 CST    0.46   1.14    3  164    4  58.5  60.1 1010.4 12.8  1.010 -99.9 -99.99 -9.99
2020/02/25 01:48 CST    0.45   1.14    1  164    2  58.5  60.1 1010.2 12.8  1.010 -99.9 -99.99 -9.99
2020/02/25 01:54 CST    0.45   1.14    2  113    2  58.3  60.1 1010.1 12.8  1.010 -99.9 -99.99 -9.99
2020/02/25 02:00 CST    0.44   1.16    1  136    2  57.7  60.1 1009.9 12.9  1.010 -99.9 -99.99 -9.99
2020/02/25 02:06 CST    0.43   1.15    1   94    2  57.9  60.1 1009.9 12.8  1.010 -99.9 -99.99 -9.99
2020/02/25 02:12 CST    0.42   0.99    1   81    1  57.7  60.1 1009.7 12.8  1.010 -99.9 -99.99 -9.99
2020/02/25 02:18 CST    0.41   1.03    0   83    1  57.6  60.1 1009.7 12.8  1.010 -99.9 -99.99 -9.99
2020/02/25 02:24 CST    0.41   0.94    0   16    0  57.9  60.1 1009.8 12.8  1.010 -99.9 -99.99 -9.99
2020/02/25 02:30 CST    0.40   1.04    0   16    0  57.7  60.1 1009.8 12.7  1.010 -99.9 -99.99 -9.99
2020/02/25 02:36 CST    0.39   1.08    0   16    0  57.7  60.1 1009.7 12.7  1.010 -99.9 -99.99 -9.99
2020/02/25 02:42 CST    0.38   1.01    0   78    0  57.7  60.1 1009.6 12.8  1.010 -99.9 -99.99 -9.99
2020/02/25 02:48 CST    0.38   1.08    2  111    3  57.6  60.1 1009.5 12.9  1.010 -99.9 -99.99 -9.99
2020/02/25 02:54 CST    0.37   1.05    3  119    4  57.4  60.1 1009.4 13.0  1.010 -99.9 -99.99 -9.99
2020/02/25 03:00 CST    0.36   1.03    4  116    4  57.2  60.1 1009.4 13.0  1.010 -99.9 -99.99 -9.99
2020/02/25 03:06 CST    0.36   1.03    4  126    5  57.2  60.1 1009.3 13.0  1.010 -99.9 -99.99 -9.99
2020/02/25 03:12 CST    0.35   1.02    4  135    5  57.2  60.1 1009.4 13.1  1.010 -99.9 -99.99 -9.99
2020/02/25 03:18 CST    0.35   1.03    4  158    5  57.2  60.1 1009.7 13.1  1.010 -99.9 -99.99 -9.99
2020/02/25 03:24 CST    0.34   1.07    6  161    6  57.2  60.1 1009.7 13.2  1.010 -99.9 -99.99 -9.99
2020/02/25 03:30 CST    0.34   0.99    5  173    7  57.6  60.1 1009.8 13.2  1.010 -99.9 -99.99 -9.99
2020/02/25 03:36 CST    0.33   1.02    6  177    6  57.7  60.1 1010.0 13.3  1.010 -99.9 -99.99 -9.99
2020/02/25 03:42 CST    0.33   1.01    6  173    7  57.7  59.9 1010.0 13.3  1.010 -99.9 -99.99 -9.99
2020/02/25 03:48 CST    0.33   1.08    5  177    6  57.7  59.9 1009.9 13.4  1.010 -99.9 -99.99 -9.99
2020/02/25 03:54 CST    0.32   1.02    4  181    6  57.9  59.9 1009.8 13.4  1.010 -99.9 -99.99 -9.99
2020/02/25 04:00 CST    0.32   0.99    5  174    5  58.1  59.9 1009.6 13.4  1.010 -99.9 -99.99 -9.99
2020/02/25 04:06 CST    0.32   0.97    4  173    6  58.1  59.9 1009.5 13.4  1.010 -99.9 -99.99 -9.99
2020/02/25 04:12 CST    0.32   1.03    4  165    5  57.9  59.9 1009.4 13.4  1.010 -99.9 -99.99 -9.99
2020/02/25 04:18 CST    0.32   1.01    4  179    5  57.9  59.9 1009.4 13.4  1.010 -99.9 -99.99 -9.99
2020/02/25 04:24 CST    0.32   1.02    4  174    5  57.7  59.9 1009.4 13.4  1.010 -99.9 -99.99 -9.99
2020/02/25 04:30 CST    0.32   0.99    3  166    4  57.7  59.9 1009.5 13.4  1.010 -99.9 -99.99 -9.99
2020/02/25 04:36 CST    0.32   1.00    3  174    3  57.6  59.9 1009.5 13.4  1.010 -99.9 -99.99 -9.99
2020/02/25 04:42 CST    0.32   1.05    2  182    3  57.6  59.9 1009.5 13.4  1.010 -99.9 -99.99 -9.99
2020/02/25 04:48 CST    0.32   1.00    1  179    2  57.6  59.9 1009.5 13.4  1.010 -99.9 -99.99 -9.99
2020/02/25 04:54 CST    0.32   1.02    1  299    2  57.6  59.9 1009.6 13.4  1.010 -99.9 -99.99 -9.99
2020/02/25 05:00 CST    0.32   1.01    1  288    2  57.6  59.9 1009.7 13.4  1.010 -99.9 -99.99 -9.99
2020/02/25 05:06 CST    0.33   0.98    3  337    3  57.6  59.9 1009.9 13.4  1.010 -99.9 -99.99 -9.99
2020/02/25 05:12 CST    0.33   1.04    3  345    3  57.2  59.9 1009.9 13.3  1.010 -99.9 -99.99 -9.99
2020/02/25 05:18 CST    0.33   0.97    2  338    3  57.2  59.9 1009.9 13.3  1.010 -99.9 -99.99 -9.99
2020/02/25 05:24 CST    0.33   0.99    1  282    2  57.4  59.9 1010.0 13.4  1.010 -99.9 -99.99 -9.99
2020/02/25 05:30 CST    0.33   1.06    2  282    2  57.2  59.9 1009.9 13.4  1.010 -99.9 -99.99 -9.99
2020/02/25 05:36 CST    0.34   1.06    1  288    2  57.4  59.9 1009.9 13.4  1.010 -99.9 -99.99 -9.99
2020/02/25 05:42 CST    0.34   1.06    2  175    2  57.4  60.1 1009.8 13.4  1.010 -99.9 -99.99 -9.99
2020/02/25 05:48 CST    0.34   1.03    2  180    2  57.0  60.1 1009.9 13.4  1.010 -99.9 -99.99 -9.99
2020/02/25 05:54 CST    0.34   1.01    1  348    2  57.2  60.1 1010.1 13.4  1.010 -99.9 -99.99 -9.99
2020/02/25 06:00 CST    0.34   1.11    0  347    1  57.6  60.1 1010.1 13.4  1.010 -99.9 -99.99 -9.99
2020/02/25 06:06 CST    0.35   1.09    1   44    1  57.0  60.1 1010.1 13.4  1.010 -99.9 -99.99 -9.99
2020/02/25 06:12 CST    0.35   1.12    1  334    1  56.8  60.1 1010.1 13.3  1.010 -99.9 -99.99 -9.99
2020/02/25 06:18 CST    0.35   1.09    1  319    2  57.0  60.1 1010.1 13.3  1.010 -99.9 -99.99 -9.99
2020/02/25 06:24 CST    0.35   1.09    1  337    2  56.8  60.1 1010.2 13.3  1.010 -99.9 -99.99 -9.99
2020/02/25 06:30 CST    0.36   1.08    2  350    2  56.3  60.1 1010.3 13.4  1.010 -99.9 -99.99 -9.99
2020/02/25 06:36 CST    0.36   1.13    3  347    4  56.3  60.1 1010.4 13.3  1.010 -99.9 -99.99 -9.99
2020/02/25 06:42 CST    0.36 -99.99 -999 -999 -999 -99.9 -99.9 -999.9 -9.9 -9.999 -99.9 -99.99 -9.99
2020/02/25 06:48 CST    0.36 -99.99 -999 -999 -999 -99.9 -99.9 -999.9 -9.9 -9.999 -99.9 -99.99 -9.99
2020/02/25 06:54 CST    0.37 -99.99 -999 -999 -999 -99.9 -99.9 -999.9 -9.9 -9.999 -99.9 -99.99 -9.99
2020/02/25 07:00 CST    0.37 -99.99 -999 -999 -999 -99.9 -99.9 -999.9 -9.9 -9.999 -99.9 -99.99 -9.99
2020/02/25 07:06 CST    0.37 -99.99 -999 -999 -999 -99.9 -99.9 -999.9 -9.9 -9.999 -99.9 -99.99 -9.99
2020/02/25 07:12 CST    0.37 -99.99 -999 -999 -999 -99.9 -99.9 -999.9 -9.9 -9.999 -99.9 -99.99 -9.99
2020/02/25 07:18 CST    0.38 -99.99 -999 -999 -999 -99.9 -99.9 -999.9 -9.9 -9.999 -99.9 -99.99 -9.99
2020/02/25 07:24 CST    0.38 -99.99 -999 -999 -999 -99.9 -99.9 -999.9 -9.9 -9.999 -99.9 -99.99 -9.99
2020/02/25 07:30 CST    0.38 -99.99 -999 -999 -999 -99.9 -99.9 -999.9 -9.9 -9.999 -99.9 -99.99 -9.99
2020/02/25 07:36 CST    0.38 -99.99 -999 -999 -999 -99.9 -99.9 -999.9 -9.9 -9.999 -99.9 -99.99 -9.99
2020/02/25 07:42 CST    0.38 -99.99 -999 -999 -999 -99.9 -99.9 -999.9 -9.9 -9.999 -99.9 -99.99 -9.99
2020/02/25 07:48 CST    0.39 -99.99 -999 -999 -999 -99.9 -99.9 -999.9 -9.9 -9.999 -99.9 -99.99 -9.99
2020/02/25 07:54 CST    0.39 -99.99 -999 -999 -999 -99.9 -99.9 -999.9 -9.9 -9.999 -99.9 -99.99 -9.99
2020/02/25 08:00 CST    0.39 -99.99 -999 -999 -999 -99.9 -99.9 -999.9 -9.9 -9.999 -99.9 -99.99 -9.99
2020/02/25 08:06 CST    0.39 -99.99 -999 -999 -999 -99.9 -99.9 -999.9 -9.9 -9.999 -99.9 -99.99 -9.99
2020/02/25 08:12 CST    0.39 -99.99 -999 -999 -999 -99.9 -99.9 -999.9 -9.9 -9.999 -99.9 -99.99 -9.99
2020/02/25 08:18 CST    0.39 -99.99 -999 -999 -999 -99.9 -99.9 -999.9 -9.9 -9.999 -99.9 -99.99 -9.99
2020/02/25 08:24 CST    0.39 -99.99 -999 -999 -999 -99.9 -99.9 -999.9 -9.9 -9.999 -99.9 -99.99 -9.99
2020/02/25 08:30 CST    0.39 -99.99 -999 -999 -999 -99.9 -99.9 -999.9 -9.9 -9.999 -99.9 -99.99 -9.99
2020/02/25 08:36 CST    0.38 -99.99 -999 -999 -999 -99.9 -99.9 -999.9 -9.9 -9.999 -99.9 -99.99 -9.99
2020/02/25 08:42 CST    0.38 -99.99 -999 -999 -999 -99.9 -99.9 -999.9 -9.9 -9.999 -99.9 -99.99 -9.99
2020/02/25 08:48 CST    0.38 -99.99 -999 -999 -999 -99.9 -99.9 -999.9 -9.9 -9.999 -99.9 -99.99 -9.99
2020/02/25 08:54 CST    0.38 -99.99 -999 -999 -999 -99.9 -99.9 -999.9 -9.9 -9.999 -99.9 -99.99 -9.99
2020/02/25 09:00 CST    0.37 -99.99 -999 -999 -999 -99.9 -99.9 -999.9 -9.9 -9.999 -99.9 -99.99 -9.99
2020/02/25 09:06 CST    0.37 -99.99 -999 -999 -999 -99.9 -99.9 -999.9 -9.9 -9.999 -99.9 -99.99 -9.99
2020/02/25 09:12 CST    0.37 -99.99 -999 -999 -999 -99.9 -99.9 -999.9 -9.9 -9.999 -99.9 -99.99 -9.99
2020/02/25 09:18 CST    0.36 -99.99 -999 -999 -999 -99.9 -99.9 -999.9 -9.9 -9.999 -99.9 -99.99 -9.99
2020/02/25 09:24 CST    0.36 -99.99 -999 -999 -999 -99.9 -99.9 -999.9 -9.9 -9.999 -99.9 -99.99 -9.99
2020/02/25 09:30 CST    0.35 -99.99 -999 -999 -999 -99.9 -99.9 -999.9 -9.9 -9.999 -99.9 -99.99 -9.99
2020/02/25 09:36 CST    0.35 -99.99 -999 -999 -999 -99.9 -99.9 -999.9 -9.9 -9.999 -99.9 -99.99 -9.99
2020/02/25 09:42 CST    0.34 -99.99 -999 -999 -999 -99.9 -99.9 -999.9 -9.9 -9.999 -99.9 -99.99 -9.99
2020/02/25 09:48 CST    0.34 -99.99 -999 -999 -999 -99.9 -99.9 -999.9 -9.9 -9.999 -99.9 -99.99 -9.99
2020/02/25 09:54 CST    0.33 -99.99 -999 -999 -999 -99.9 -99.9 -999.9 -9.9 -9.999 -99.9 -99.99 -9.99
2020/02/25 10:00 CST    0.32 -99.99 -999 -999 -999 -99.9 -99.9 -999.9 -9.9 -9.999 -99.9 -99.99 -9.99
2020/02/25 10:06 CST    0.31 -99.99 -999 -999 -999 -99.9 -99.9 -999.9 -9.9 -9.999 -99.9 -99.99 -9.99
2020/02/25 10:12 CST    0.31 -99.99 -999 -999 -999 -99.9 -99.9 -999.9 -9.9 -9.999 -99.9 -99.99 -9.99
2020/02/25 10:18 CST    0.30 -99.99 -999 -999 -999 -99.9 -99.9 -999.9 -9.9 -9.999 -99.9 -99.99 -9.99
2020/02/25 10:24 CST    0.29 -99.99 -999 -999 -999 -99.9 -99.9 -999.9 -9.9 -9.999 -99.9 -99.99 -9.99
2020/02/25 10:30 CST    0.28 -99.99 -999 -999 -999 -99.9 -99.9 -999.9 -9.9 -9.999 -99.9 -99.99 -9.99
2020/02/25 10:36 CST    0.27 -99.99 -999 -999 -999 -99.9 -99.9 -999.9 -9.9 -9.999 -99.9 -99.99 -9.99
2020/02/25 10:42 CST    0.26 -99.99 -999 -999 -999 -99.9 -99.9 -999.9 -9.9 -9.999 -99.9 -99.99 -9.99
2020/02/25 10:48 CST    0.25 -99.99 -999 -999 -999 -99.9 -99.9 -999.9 -9.9 -9.999 -99.9 -99.99 -9.99
2020/02/25 10:54 CST    0.24 -99.99 -999 -999 -999 -99.9 -99.9 -999.9 -9.9 -9.999 -99.9 -99.99 -9.99
2020/02/25 11:00 CST    0.23 -99.99 -999 -999 -999 -99.9 -99.9 -999.9 -9.9 -9.999 -99.9 -99.99 -9.99
2020/02/25 11:06 CST    0.21 -99.99 -999 -999 -999 -99.9 -99.9 -999.9 -9.9 -9.999 -99.9 -99.99 -9.99
2020/02/25 11:12 CST    0.20 -99.99 -999 -999 -999 -99.9 -99.9 -999.9 -9.9 -9.999 -99.9 -99.99 -9.99
2020/02/25 11:18 CST    0.19 -99.99 -999 -999 -999 -99.9 -99.9 -999.9 -9.9 -9.999 -99.9 -99.99 -9.99
2020/02/25 11:24 CST    0.17 -99.99 -999 -999 -999 -99.9 -99.9 -999.9 -9.9 -9.999 -99.9 -99.99 -9.99
2020/02/25 11:30 CST    0.16 -99.99 -999 -999 -999 -99.9 -99.9 -999.9 -9.9 -9.999 -99.9 -99.99 -9.99
2020/02/25 11:36 CST    0.15 -99.99 -999 -999 -999 -99.9 -99.9 -999.9 -9.9 -9.999 -99.9 -99.99 -9.99
2020/02/25 11:42 CST    0.13 -99.99 -999 -999 -999 -99.9 -99.9 -999.9 -9.9 -9.999 -99.9 -99.99 -9.99
2020/02/25 11:48 CST    0.12 -99.99 -999 -999 -999 -99.9 -99.9 -999.9 -9.9 -9.999 -99.9 -99.99 -9.99
2020/02/25 11:54 CST    0.10 -99.99 -999 -999 -999 -99.9 -99.9 -999.9 -9.9 -9.999 -99.9 -99.99 -9.99
2020/02/25 12:00 CST    0.09 -99.99 -999 -999 -999 -99.9 -99.9 -999.9 -9.9 -9.999 -99.9 -99.99 -9.99
2020/02/25 12:06 CST    0.07 -99.99 -999 -999 -999 -99.9 -99.9 -999.9 -9.9 -9.999 -99.9 -99.99 -9.99
2020/02/25 12:12 CST    0.06 -99.99 -999 -999 -999 -99.9 -99.9 -999.9 -9.9 -9.999 -99.9 -99.99 -9.99
2020/02/25 12:18 CST    0.04 -99.99 -999 -999 -999 -99.9 -99.9 -999.9 -9.9 -9.999 -99.9 -99.99 -9.99
2020/02/25 12:24 CST    0.03 -99.99 -999 -999 -999 -99.9 -99.9 -999.9 -9.9 -9.999 -99.9 -99.99 -9.99
2020/02/25 12:30 CST    0.01 -99.99 -999 -999 -999 -99.9 -99.9 -999.9 -9.9 -9.999 -99.9 -99.99 -9.99
2020/02/25 12:36 CST    0.00 -99.99 -999 -999 -999 -99.9 -99.9 -999.9 -9.9 -9.999 -99.9 -99.99 -9.99
2020/02/25 12:42 CST   -0.01 -99.99 -999 -999 -999 -99.9 -99.9 -999.9 -9.9 -9.999 -99.9 -99.99 -9.99
2020/02/25 12:48 CST   -0.03 -99.99 -999 -999 -999 -99.9 -99.9 -999.9 -9.9 -9.999 -99.9 -99.99 -9.99